sensor_id;sensor_type;location;lat;lon;timestamp;P1;durP1;ratioP1;P2;durP2;ratioP2
17983;SDS011;9117;52.420;20.728;2023-03-31T00:01:07;18.63;;;8.53;;
17983;SDS011;9117;52.420;20.728;2023-03-31T00:03:36;16.03;;;9.03;;
17983;SDS011;9117;52.420;20.728;2023-03-31T00:06:10;16.50;;;8.70;;
17983;SDS011;9117;52.420;20.728;2023-03-31T00:08:44;16.60;;;8.83;;
17983;SDS011;9117;52.420;20.728;2023-03-31T00:11:19;17.90;;;9.20;;
17983;SDS011;9117;52.420;20.728;2023-03-31T00:13:48;17.90;;;8.93;;
17983;SDS011;9117;52.420;20.728;2023-03-31T00:16:16;17.50;;;8.87;;
17983;SDS011;9117;52.420;20.728;2023-03-31T00:18:45;18.30;;;9.27;;
17983;SDS011;9117;52.420;20.728;2023-03-31T00:21:17;15.77;;;10.23;;
17983;SDS011;9117;52.420;20.728;2023-03-31T00:23:55;16.23;;;10.23;;
17983;SDS011;9117;52.420;20.728;2023-03-31T00:26:26;19.83;;;10.30;;
17983;SDS011;9117;52.420;20.728;2023-03-31T00:28:56;20.20;;;10.10;;
17983;SDS011;9117;52.420;20.728;2023-03-31T00:31:25;16.27;;;9.60;;
17983;SDS011;9117;52.420;20.728;2023-03-31T00:33:54;20.00;;;9.40;;
17983;SDS011;9117;52.420;20.728;2023-03-31T00:36:22;18.17;;;9.47;;
17983;SDS011;9117;52.420;20.728;2023-03-31T00:38:53;16.77;;;9.37;;
17983;SDS011;9117;52.420;20.728;2023-03-31T00:41:24;19.70;;;10.00;;
17983;SDS011;9117;52.420;20.728;2023-03-31T00:44:01;17.63;;;9.87;;
17983;SDS011;9117;52.420;20.728;2023-03-31T00:46:35;19.40;;;9.80;;
17983;SDS011;9117;52.420;20.728;2023-03-31T00:49:09;18.83;;;10.20;;
17983;SDS011;9117;52.420;20.728;2023-03-31T00:51:43;17.87;;;9.73;;
17983;SDS011;9117;52.420;20.728;2023-03-31T00:54:12;17.27;;;10.10;;
17983;SDS011;9117;52.420;20.728;2023-03-31T00:56:42;19.10;;;10.57;;
17983;SDS011;9117;52.420;20.728;2023-03-31T00:59:13;20.47;;;10.57;;
17983;SDS011;9117;52.420;20.728;2023-03-31T01:01:43;20.27;;;11.17;;
17983;SDS011;9117;52.420;20.728;2023-03-31T01:04:13;20.13;;;11.50;;
17983;SDS011;9117;52.420;20.728;2023-03-31T01:06:43;15.63;;;9.27;;
17983;SDS011;9117;52.420;20.728;2023-03-31T01:09:22;16.53;;;10.07;;
17983;SDS011;9117;52.420;20.728;2023-03-31T01:11:52;16.83;;;10.23;;
17983;SDS011;9117;52.420;20.728;2023-03-31T01:14:21;18.70;;;11.13;;
17983;SDS011;9117;52.420;20.728;2023-03-31T01:16:49;17.98;;;10.38;;
17983;SDS011;9117;52.420;20.728;2023-03-31T01:19:19;20.20;;;11.45;;
17983;SDS011;9117;52.420;20.728;2023-03-31T01:28:19;18.83;;;11.30;;
17983;SDS011;9117;52.420;20.728;2023-03-31T01:33:55;25.27;;;13.23;;
17983;SDS011;9117;52.420;20.728;2023-03-31T01:42:40;25.63;;;13.57;;
17983;SDS011;9117;52.420;20.728;2023-03-31T01:45:16;25.50;;;14.83;;
17983;SDS011;9117;52.420;20.728;2023-03-31T01:47:54;22.27;;;12.50;;
17983;SDS011;9117;52.420;20.728;2023-03-31T01:50:25;21.27;;;12.53;;
17983;SDS011;9117;52.420;20.728;2023-03-31T01:53:00;23.60;;;12.87;;
17983;SDS011;9117;52.420;20.728;2023-03-31T01:55:34;23.23;;;11.93;;
17983;SDS011;9117;52.420;20.728;2023-03-31T01:58:05;19.30;;;12.10;;
17983;SDS011;9117;52.420;20.728;2023-03-31T02:00:37;22.87;;;12.20;;
17983;SDS011;9117;52.420;20.728;2023-03-31T02:03:10;21.80;;;12.30;;
17983;SDS011;9117;52.420;20.728;2023-03-31T02:05:44;23.93;;;12.53;;
17983;SDS011;9117;52.420;20.728;2023-03-31T02:08:16;24.37;;;11.93;;
17983;SDS011;9117;52.420;20.728;2023-03-31T02:10:50;27.20;;;13.67;;
17983;SDS011;9117;52.420;20.728;2023-03-31T02:13:20;23.70;;;13.27;;
17983;SDS011;9117;52.420;20.728;2023-03-31T02:15:52;24.53;;;12.53;;
17983;SDS011;9117;52.420;20.728;2023-03-31T02:18:25;24.53;;;13.37;;
17983;SDS011;9117;52.420;20.728;2023-03-31T02:20:58;24.87;;;13.63;;
17983;SDS011;9117;52.420;20.728;2023-03-31T02:23:28;23.40;;;13.33;;
17983;SDS011;9117;52.420;20.728;2023-03-31T02:26:01;21.80;;;12.70;;
17983;SDS011;9117;52.420;20.728;2023-03-31T02:28:33;26.40;;;13.13;;
17983;SDS011;9117;52.420;20.728;2023-03-31T02:31:07;26.67;;;13.60;;
17983;SDS011;9117;52.420;20.728;2023-03-31T02:33:45;22.87;;;13.47;;
17983;SDS011;9117;52.420;20.728;2023-03-31T02:36:14;21.87;;;13.40;;
17983;SDS011;9117;52.420;20.728;2023-03-31T02:38:43;24.43;;;12.90;;
17983;SDS011;9117;52.420;20.728;2023-03-31T02:41:17;25.87;;;13.27;;
17983;SDS011;9117;52.420;20.728;2023-03-31T02:43:45;21.67;;;13.33;;
17983;SDS011;9117;52.420;20.728;2023-03-31T02:46:14;23.00;;;13.40;;
17983;SDS011;9117;52.420;20.728;2023-03-31T02:48:43;26.37;;;13.17;;
17983;SDS011;9117;52.420;20.728;2023-03-31T02:51:29;21.10;;;12.93;;
17983;SDS011;9117;52.420;20.728;2023-03-31T02:54:27;22.57;;;12.60;;
17983;SDS011;9117;52.420;20.728;2023-03-31T02:57:22;25.90;;;11.93;;
17983;SDS011;9117;52.420;20.728;2023-03-31T03:00:09;23.80;;;12.73;;
17983;SDS011;9117;52.420;20.728;2023-03-31T03:02:50;24.93;;;13.70;;
17983;SDS011;9117;52.420;20.728;2023-03-31T03:05:31;25.00;;;12.80;;
17983;SDS011;9117;52.420;20.728;2023-03-31T03:08:14;21.50;;;12.23;;
17983;SDS011;9117;52.420;20.728;2023-03-31T03:10:56;27.77;;;13.03;;
17983;SDS011;9117;52.420;20.728;2023-03-31T03:13:34;22.00;;;13.53;;
17983;SDS011;9117;52.420;20.728;2023-03-31T03:16:09;21.70;;;12.53;;
17983;SDS011;9117;52.420;20.728;2023-03-31T03:18:44;24.47;;;13.53;;
17983;SDS011;9117;52.420;20.728;2023-03-31T03:21:22;24.03;;;13.03;;
17983;SDS011;9117;52.420;20.728;2023-03-31T03:23:50;26.50;;;13.43;;
17983;SDS011;9117;52.420;20.728;2023-03-31T03:26:20;22.17;;;12.40;;
17983;SDS011;9117;52.420;20.728;2023-03-31T03:28:50;25.17;;;13.43;;
17983;SDS011;9117;52.420;20.728;2023-03-31T03:31:18;22.23;;;13.37;;
17983;SDS011;9117;52.420;20.728;2023-03-31T03:33:49;23.00;;;13.47;;
17983;SDS011;9117;52.420;20.728;2023-03-31T03:36:18;27.13;;;14.37;;
17983;SDS011;9117;52.420;20.728;2023-03-31T03:38:47;29.57;;;17.10;;
17983;SDS011;9117;52.420;20.728;2023-03-31T03:41:15;29.27;;;14.53;;
17983;SDS011;9117;52.420;20.728;2023-03-31T03:43:43;29.00;;;16.57;;
17983;SDS011;9117;52.420;20.728;2023-03-31T03:46:13;29.10;;;15.37;;
17983;SDS011;9117;52.420;20.728;2023-03-31T03:48:41;28.93;;;17.03;;
17983;SDS011;9117;52.420;20.728;2023-03-31T03:51:09;25.67;;;16.17;;
17983;SDS011;9117;52.420;20.728;2023-03-31T03:53:37;27.90;;;16.87;;
17983;SDS011;9117;52.420;20.728;2023-03-31T03:56:06;30.67;;;16.40;;
17983;SDS011;9117;52.420;20.728;2023-03-31T03:58:34;34.40;;;16.43;;
17983;SDS011;9117;52.420;20.728;2023-03-31T04:01:03;32.10;;;16.47;;
17983;SDS011;9117;52.420;20.728;2023-03-31T04:03:33;28.80;;;15.53;;
17983;SDS011;9117;52.420;20.728;2023-03-31T04:06:01;28.93;;;14.50;;
17983;SDS011;9117;52.420;20.728;2023-03-31T04:08:30;28.93;;;15.97;;
17983;SDS011;9117;52.420;20.728;2023-03-31T04:10:58;29.93;;;15.27;;
17983;SDS011;9117;52.420;20.728;2023-03-31T04:13:29;26.63;;;15.33;;
17983;SDS011;9117;52.420;20.728;2023-03-31T04:15:57;27.10;;;13.50;;
17983;SDS011;9117;52.420;20.728;2023-03-31T04:18:25;26.47;;;14.90;;
17983;SDS011;9117;52.420;20.728;2023-03-31T04:20:55;32.80;;;14.63;;
17983;SDS011;9117;52.420;20.728;2023-03-31T04:23:30;28.30;;;13.57;;
17983;SDS011;9117;52.420;20.728;2023-03-31T04:25:58;25.57;;;14.30;;
17983;SDS011;9117;52.420;20.728;2023-03-31T04:28:29;26.00;;;14.20;;
17983;SDS011;9117;52.420;20.728;2023-03-31T04:31:00;28.73;;;13.70;;
17983;SDS011;9117;52.420;20.728;2023-03-31T04:33:29;28.83;;;14.00;;
17983;SDS011;9117;52.420;20.728;2023-03-31T04:36:00;33.47;;;15.80;;
17983;SDS011;9117;52.420;20.728;2023-03-31T04:38:32;24.03;;;13.53;;
17983;SDS011;9117;52.420;20.728;2023-03-31T04:41:01;24.47;;;13.47;;
17983;SDS011;9117;52.420;20.728;2023-03-31T04:43:29;25.70;;;13.43;;
17983;SDS011;9117;52.420;20.728;2023-03-31T04:45:57;29.10;;;13.87;;
17983;SDS011;9117;52.420;20.728;2023-03-31T04:48:25;28.00;;;14.33;;
17983;SDS011;9117;52.420;20.728;2023-03-31T04:50:54;27.47;;;14.33;;
17983;SDS011;9117;52.420;20.728;2023-03-31T04:53:23;25.07;;;13.27;;
17983;SDS011;9117;52.420;20.728;2023-03-31T04:55:52;25.67;;;13.73;;
17983;SDS011;9117;52.420;20.728;2023-03-31T04:58:20;26.00;;;13.23;;
17983;SDS011;9117;52.420;20.728;2023-03-31T05:00:48;25.50;;;13.00;;
17983;SDS011;9117;52.420;20.728;2023-03-31T05:03:18;29.50;;;12.87;;
17983;SDS011;9117;52.420;20.728;2023-03-31T05:05:47;23.37;;;12.37;;
17983;SDS011;9117;52.420;20.728;2023-03-31T05:08:15;26.57;;;12.60;;
17983;SDS011;9117;52.420;20.728;2023-03-31T05:10:44;26.93;;;12.83;;
17983;SDS011;9117;52.420;20.728;2023-03-31T05:13:12;25.53;;;13.87;;
17983;SDS011;9117;52.420;20.728;2023-03-31T05:15:41;27.63;;;14.50;;
17983;SDS011;9117;52.420;20.728;2023-03-31T05:18:10;26.03;;;14.63;;
17983;SDS011;9117;52.420;20.728;2023-03-31T05:20:38;27.93;;;14.53;;
17983;SDS011;9117;52.420;20.728;2023-03-31T05:23:06;28.00;;;15.13;;
17983;SDS011;9117;52.420;20.728;2023-03-31T05:25:35;28.87;;;14.93;;
17983;SDS011;9117;52.420;20.728;2023-03-31T05:28:13;34.50;;;16.37;;
17983;SDS011;9117;52.420;20.728;2023-03-31T05:30:41;32.93;;;16.17;;
17983;SDS011;9117;52.420;20.728;2023-03-31T05:33:09;33.00;;;17.47;;
17983;SDS011;9117;52.420;20.728;2023-03-31T05:35:38;31.33;;;17.17;;
17983;SDS011;9117;52.420;20.728;2023-03-31T05:38:06;37.93;;;17.33;;
17983;SDS011;9117;52.420;20.728;2023-03-31T05:40:34;34.50;;;17.37;;
17983;SDS011;9117;52.420;20.728;2023-03-31T05:43:02;35.97;;;18.97;;
17983;SDS011;9117;52.420;20.728;2023-03-31T05:45:32;35.53;;;17.67;;
17983;SDS011;9117;52.420;20.728;2023-03-31T05:48:00;42.73;;;19.40;;
17983;SDS011;9117;52.420;20.728;2023-03-31T05:50:28;39.83;;;19.20;;
17983;SDS011;9117;52.420;20.728;2023-03-31T05:52:57;37.37;;;18.57;;
17983;SDS011;9117;52.420;20.728;2023-03-31T05:55:25;42.00;;;20.40;;
17983;SDS011;9117;52.420;20.728;2023-03-31T05:57:53;36.07;;;19.17;;
17983;SDS011;9117;52.420;20.728;2023-03-31T06:00:22;35.73;;;19.43;;
17983;SDS011;9117;52.420;20.728;2023-03-31T06:02:52;39.30;;;20.67;;
17983;SDS011;9117;52.420;20.728;2023-03-31T06:05:20;39.27;;;19.00;;
17983;SDS011;9117;52.420;20.728;2023-03-31T06:07:52;38.53;;;18.43;;
17983;SDS011;9117;52.420;20.728;2023-03-31T06:10:20;37.37;;;19.10;;
17983;SDS011;9117;52.420;20.728;2023-03-31T06:12:48;34.67;;;18.27;;
17983;SDS011;9117;52.420;20.728;2023-03-31T06:15:16;36.57;;;18.87;;
17983;SDS011;9117;52.420;20.728;2023-03-31T06:17:44;35.63;;;18.07;;
17983;SDS011;9117;52.420;20.728;2023-03-31T06:20:14;35.60;;;17.83;;
17983;SDS011;9117;52.420;20.728;2023-03-31T06:22:53;39.37;;;19.60;;
17983;SDS011;9117;52.420;20.728;2023-03-31T06:25:22;37.07;;;19.50;;
17983;SDS011;9117;52.420;20.728;2023-03-31T06:27:50;38.73;;;18.97;;
17983;SDS011;9117;52.420;20.728;2023-03-31T06:30:18;39.33;;;20.30;;
17983;SDS011;9117;52.420;20.728;2023-03-31T06:32:47;31.70;;;19.20;;
17983;SDS011;9117;52.420;20.728;2023-03-31T06:35:16;38.00;;;19.37;;
17983;SDS011;9117;52.420;20.728;2023-03-31T06:37:44;37.57;;;18.43;;
17983;SDS011;9117;52.420;20.728;2023-03-31T06:40:13;31.23;;;18.50;;
17983;SDS011;9117;52.420;20.728;2023-03-31T06:42:41;39.33;;;19.33;;
17983;SDS011;9117;52.420;20.728;2023-03-31T06:45:09;36.93;;;19.50;;
17983;SDS011;9117;52.420;20.728;2023-03-31T06:47:37;36.00;;;18.53;;
17983;SDS011;9117;52.420;20.728;2023-03-31T06:50:07;33.83;;;18.07;;
17983;SDS011;9117;52.420;20.728;2023-03-31T06:52:38;35.50;;;19.23;;
17983;SDS011;9117;52.420;20.728;2023-03-31T06:55:07;35.47;;;17.20;;
17983;SDS011;9117;52.420;20.728;2023-03-31T06:57:36;32.90;;;18.57;;
17983;SDS011;9117;52.420;20.728;2023-03-31T07:00:05;34.27;;;17.90;;
17983;SDS011;9117;52.420;20.728;2023-03-31T07:02:34;34.33;;;17.60;;
17983;SDS011;9117;52.420;20.728;2023-03-31T07:05:03;32.83;;;16.97;;
17983;SDS011;9117;52.420;20.728;2023-03-31T07:07:32;28.67;;;16.23;;
17983;SDS011;9117;52.420;20.728;2023-03-31T07:10:03;29.63;;;16.97;;
17983;SDS011;9117;52.420;20.728;2023-03-31T07:12:32;34.10;;;16.73;;
17983;SDS011;9117;52.420;20.728;2023-03-31T07:15:00;31.20;;;17.27;;
17983;SDS011;9117;52.420;20.728;2023-03-31T07:17:28;33.60;;;16.30;;
17983;SDS011;9117;52.420;20.728;2023-03-31T07:19:56;32.05;;;16.33;;
17983;SDS011;9117;52.420;20.728;2023-03-31T07:22:25;31.27;;;16.73;;
17983;SDS011;9117;52.420;20.728;2023-03-31T07:24:53;27.33;;;15.40;;
17983;SDS011;9117;52.420;20.728;2023-03-31T07:27:23;29.27;;;15.90;;
17983;SDS011;9117;52.420;20.728;2023-03-31T07:29:51;26.93;;;15.63;;
17983;SDS011;9117;52.420;20.728;2023-03-31T07:32:20;27.92;;;15.95;;
17983;SDS011;9117;52.420;20.728;2023-03-31T07:34:49;26.98;;;14.65;;
17983;SDS011;9117;52.420;20.728;2023-03-31T07:37:17;26.40;;;14.20;;
17983;SDS011;9117;52.420;20.728;2023-03-31T07:39:46;24.30;;;14.48;;
17983;SDS011;9117;52.420;20.728;2023-03-31T07:42:14;25.37;;;13.53;;
17983;SDS011;9117;52.420;20.728;2023-03-31T07:44:43;27.53;;;14.23;;
17983;SDS011;9117;52.420;20.728;2023-03-31T07:47:11;27.07;;;14.57;;
17983;SDS011;9117;52.420;20.728;2023-03-31T07:49:40;25.60;;;14.13;;
17983;SDS011;9117;52.420;20.728;2023-03-31T07:52:08;23.13;;;12.77;;
17983;SDS011;9117;52.420;20.728;2023-03-31T07:54:36;21.77;;;12.17;;
17983;SDS011;9117;52.420;20.728;2023-03-31T07:57:04;22.60;;;11.93;;
17983;SDS011;9117;52.420;20.728;2023-03-31T07:59:34;19.43;;;10.20;;
17983;SDS011;9117;52.420;20.728;2023-03-31T08:02:04;20.50;;;12.07;;
17983;SDS011;9117;52.420;20.728;2023-03-31T08:04:32;18.27;;;11.00;;
17983;SDS011;9117;52.420;20.728;2023-03-31T08:07:00;25.35;;;11.63;;
17983;SDS011;9117;52.420;20.728;2023-03-31T08:09:29;20.53;;;10.97;;
17983;SDS011;9117;52.420;20.728;2023-03-31T08:11:57;22.33;;;12.97;;
17983;SDS011;9117;52.420;20.728;2023-03-31T08:14:25;16.07;;;10.87;;
17983;SDS011;9117;52.420;20.728;2023-03-31T08:17:08;20.33;;;12.18;;
17983;SDS011;9117;52.420;20.728;2023-03-31T08:19:36;22.08;;;12.13;;
17983;SDS011;9117;52.420;20.728;2023-03-31T08:22:04;22.63;;;12.30;;
17983;SDS011;9117;52.420;20.728;2023-03-31T08:24:33;21.02;;;12.57;;
17983;SDS011;9117;52.420;20.728;2023-03-31T08:27:01;22.00;;;12.27;;
17983;SDS011;9117;52.420;20.728;2023-03-31T08:29:29;22.52;;;11.90;;
17983;SDS011;9117;52.420;20.728;2023-03-31T08:31:57;22.15;;;12.60;;
17983;SDS011;9117;52.420;20.728;2023-03-31T08:34:27;26.67;;;13.55;;
17983;SDS011;9117;52.420;20.728;2023-03-31T08:36:55;22.27;;;13.15;;
17983;SDS011;9117;52.420;20.728;2023-03-31T08:39:23;23.90;;;13.63;;
17983;SDS011;9117;52.420;20.728;2023-03-31T08:41:53;25.38;;;13.82;;
17983;SDS011;9117;52.420;20.728;2023-03-31T08:44:28;25.70;;;13.33;;
17983;SDS011;9117;52.420;20.728;2023-03-31T08:47:01;23.77;;;13.77;;
17983;SDS011;9117;52.420;20.728;2023-03-31T08:49:35;20.65;;;12.85;;
17983;SDS011;9117;52.420;20.728;2023-03-31T08:52:09;25.02;;;13.77;;
17983;SDS011;9117;52.420;20.728;2023-03-31T08:54:42;21.77;;;13.15;;
17983;SDS011;9117;52.420;20.728;2023-03-31T08:57:15;24.00;;;13.18;;
17983;SDS011;9117;52.420;20.728;2023-03-31T08:59:46;24.73;;;14.65;;
17983;SDS011;9117;52.420;20.728;2023-03-31T09:02:18;25.63;;;13.85;;
17983;SDS011;9117;52.420;20.728;2023-03-31T09:08:34;30.05;;;13.55;;
17983;SDS011;9117;52.420;20.728;2023-03-31T09:11:06;29.58;;;14.43;;
17983;SDS011;9117;52.420;20.728;2023-03-31T09:13:48;22.75;;;13.60;;
17983;SDS011;9117;52.420;20.728;2023-03-31T09:16:42;20.25;;;13.50;;
17983;SDS011;9117;52.420;20.728;2023-03-31T09:19:15;22.35;;;13.60;;
17983;SDS011;9117;52.420;20.728;2023-03-31T09:21:49;20.15;;;13.00;;
17983;SDS011;9117;52.420;20.728;2023-03-31T09:24:25;18.55;;;11.35;;
17983;SDS011;9117;52.420;20.728;2023-03-31T09:26:59;20.48;;;11.07;;
17983;SDS011;9117;52.420;20.728;2023-03-31T09:29:29;20.63;;;11.57;;
17983;SDS011;9117;52.420;20.728;2023-03-31T09:32:08;21.05;;;11.32;;
17983;SDS011;9117;52.420;20.728;2023-03-31T09:34:41;21.08;;;11.18;;
17983;SDS011;9117;52.420;20.728;2023-03-31T09:37:12;17.02;;;10.25;;
17983;SDS011;9117;52.420;20.728;2023-03-31T09:39:40;21.83;;;10.27;;
17983;SDS011;9117;52.420;20.728;2023-03-31T09:42:09;24.35;;;9.32;;
17983;SDS011;9117;52.420;20.728;2023-03-31T09:44:40;15.25;;;8.82;;
17983;SDS011;9117;52.420;20.728;2023-03-31T09:47:12;14.15;;;7.18;;
17983;SDS011;9117;52.420;20.728;2023-03-31T09:49:45;15.90;;;7.90;;
17983;SDS011;9117;52.420;20.728;2023-03-31T09:52:22;13.40;;;6.90;;
17983;SDS011;9117;52.420;20.728;2023-03-31T09:54:57;9.93;;;6.15;;
17983;SDS011;9117;52.420;20.728;2023-03-31T09:57:28;11.85;;;7.00;;
17983;SDS011;9117;52.420;20.728;2023-03-31T10:00:00;13.95;;;7.25;;
17983;SDS011;9117;52.420;20.728;2023-03-31T10:02:39;13.55;;;6.97;;
17983;SDS011;9117;52.420;20.728;2023-03-31T10:05:18;13.50;;;6.88;;
17983;SDS011;9117;52.420;20.728;2023-03-31T10:08:18;8.75;;;5.60;;
17983;SDS011;9117;52.420;20.728;2023-03-31T10:10:54;9.98;;;6.20;;
17983;SDS011;9117;52.420;20.728;2023-03-31T10:13:24;10.90;;;5.63;;
17983;SDS011;9117;52.420;20.728;2023-03-31T10:16:00;8.75;;;5.30;;
17983;SDS011;9117;52.420;20.728;2023-03-31T10:18:31;12.20;;;5.10;;
17983;SDS011;9117;52.420;20.728;2023-03-31T10:21:02;13.93;;;5.60;;
17983;SDS011;9117;52.420;20.728;2023-03-31T10:23:34;11.15;;;4.70;;
17983;SDS011;9117;52.420;20.728;2023-03-31T10:26:03;10.23;;;5.50;;
17983;SDS011;9117;52.420;20.728;2023-03-31T10:28:32;9.25;;;5.03;;
17983;SDS011;9117;52.420;20.728;2023-03-31T10:31:02;9.32;;;4.93;;
17983;SDS011;9117;52.420;20.728;2023-03-31T10:33:32;10.68;;;4.60;;
17983;SDS011;9117;52.420;20.728;2023-03-31T10:36:06;10.20;;;4.70;;
17983;SDS011;9117;52.420;20.728;2023-03-31T10:38:43;9.77;;;5.57;;
17983;SDS011;9117;52.420;20.728;2023-03-31T10:41:12;12.45;;;4.85;;
17983;SDS011;9117;52.420;20.728;2023-03-31T10:43:47;15.75;;;4.93;;
17983;SDS011;9117;52.420;20.728;2023-03-31T10:46:17;8.55;;;3.95;;
17983;SDS011;9117;52.420;20.728;2023-03-31T10:48:46;9.20;;;3.88;;
17983;SDS011;9117;52.420;20.728;2023-03-31T10:51:15;7.30;;;4.03;;
17983;SDS011;9117;52.420;20.728;2023-03-31T10:53:47;7.47;;;3.65;;
17983;SDS011;9117;52.420;20.728;2023-03-31T10:56:23;7.43;;;3.50;;
17983;SDS011;9117;52.420;20.728;2023-03-31T10:59:17;12.40;;;4.40;;
17983;SDS011;9117;52.420;20.728;2023-03-31T11:02:14;11.40;;;3.33;;
17983;SDS011;9117;52.420;20.728;2023-03-31T11:05:04;9.52;;;3.60;;
17983;SDS011;9117;52.420;20.728;2023-03-31T11:07:46;7.88;;;3.55;;
17983;SDS011;9117;52.420;20.728;2023-03-31T11:10:27;10.05;;;3.92;;
17983;SDS011;9117;52.420;20.728;2023-03-31T11:13:05;8.82;;;3.75;;
17983;SDS011;9117;52.420;20.728;2023-03-31T11:15:42;12.95;;;3.95;;
17983;SDS011;9117;52.420;20.728;2023-03-31T11:18:40;10.55;;;3.78;;
17983;SDS011;9117;52.420;20.728;2023-03-31T11:21:18;11.57;;;4.03;;
17983;SDS011;9117;52.420;20.728;2023-03-31T11:23:54;10.82;;;3.60;;
17983;SDS011;9117;52.420;20.728;2023-03-31T11:26:35;8.13;;;3.63;;
17983;SDS011;9117;52.420;20.728;2023-03-31T11:29:13;9.13;;;3.97;;
17983;SDS011;9117;52.420;20.728;2023-03-31T11:31:54;12.63;;;3.90;;
17983;SDS011;9117;52.420;20.728;2023-03-31T11:37:31;12.32;;;4.43;;
17983;SDS011;9117;52.420;20.728;2023-03-31T11:40:14;9.20;;;3.72;;
17983;SDS011;9117;52.420;20.728;2023-03-31T11:42:59;14.23;;;4.07;;
17983;SDS011;9117;52.420;20.728;2023-03-31T11:45:33;13.68;;;4.72;;
17983;SDS011;9117;52.420;20.728;2023-03-31T11:48:05;11.05;;;3.88;;
17983;SDS011;9117;52.420;20.728;2023-03-31T11:50:41;11.43;;;3.75;;
17983;SDS011;9117;52.420;20.728;2023-03-31T11:53:14;11.15;;;4.18;;
17983;SDS011;9117;52.420;20.728;2023-03-31T11:55:47;15.75;;;4.97;;
17983;SDS011;9117;52.420;20.728;2023-03-31T11:58:19;8.57;;;3.70;;
17983;SDS011;9117;52.420;20.728;2023-03-31T12:00:51;8.80;;;3.30;;
17983;SDS011;9117;52.420;20.728;2023-03-31T12:03:30;10.60;;;3.67;;
17983;SDS011;9117;52.420;20.728;2023-03-31T12:06:04;9.18;;;2.97;;
17983;SDS011;9117;52.420;20.728;2023-03-31T12:08:44;9.10;;;3.40;;
17983;SDS011;9117;52.420;20.728;2023-03-31T12:11:26;11.68;;;3.88;;
17983;SDS011;9117;52.420;20.728;2023-03-31T12:14:05;10.65;;;4.10;;
17983;SDS011;9117;52.420;20.728;2023-03-31T12:16:42;10.82;;;3.95;;
17983;SDS011;9117;52.420;20.728;2023-03-31T12:19:13;7.13;;;2.85;;
17983;SDS011;9117;52.420;20.728;2023-03-31T12:21:46;6.60;;;3.38;;
17983;SDS011;9117;52.420;20.728;2023-03-31T12:24:17;6.78;;;3.75;;
17983;SDS011;9117;52.420;20.728;2023-03-31T12:26:49;8.25;;;3.35;;
17983;SDS011;9117;52.420;20.728;2023-03-31T12:29:28;10.90;;;3.88;;
17983;SDS011;9117;52.420;20.728;2023-03-31T12:32:00;9.10;;;3.30;;
17983;SDS011;9117;52.420;20.728;2023-03-31T12:34:32;11.15;;;4.03;;
17983;SDS011;9117;52.420;20.728;2023-03-31T12:37:16;6.15;;;3.00;;
17983;SDS011;9117;52.420;20.728;2023-03-31T12:40:06;11.57;;;2.88;;
17983;SDS011;9117;52.420;20.728;2023-03-31T12:42:48;12.32;;;3.95;;
17983;SDS011;9117;52.420;20.728;2023-03-31T12:45:37;8.30;;;2.90;;
17983;SDS011;9117;52.420;20.728;2023-03-31T12:51:09;11.50;;;3.40;;
17983;SDS011;9117;52.420;20.728;2023-03-31T12:53:50;11.20;;;3.33;;
17983;SDS011;9117;52.420;20.728;2023-03-31T12:56:34;8.85;;;3.50;;
17983;SDS011;9117;52.420;20.728;2023-03-31T12:59:40;7.88;;;3.78;;
17983;SDS011;9117;52.420;20.728;2023-03-31T13:02:16;7.93;;;3.50;;
17983;SDS011;9117;52.420;20.728;2023-03-31T13:04:50;9.57;;;3.50;;
17983;SDS011;9117;52.420;20.728;2023-03-31T13:10:24;10.77;;;3.13;;
17983;SDS011;9117;52.420;20.728;2023-03-31T13:12:59;8.45;;;3.08;;
17983;SDS011;9117;52.420;20.728;2023-03-31T13:15:30;7.93;;;3.28;;
17983;SDS011;9117;52.420;20.728;2023-03-31T13:18:01;10.00;;;3.10;;
17983;SDS011;9117;52.420;20.728;2023-03-31T13:20:34;10.88;;;3.38;;
17983;SDS011;9117;52.420;20.728;2023-03-31T13:23:04;7.68;;;2.92;;
17983;SDS011;9117;52.420;20.728;2023-03-31T13:25:45;8.35;;;3.03;;
17983;SDS011;9117;52.420;20.728;2023-03-31T13:28:16;5.57;;;2.60;;
17983;SDS011;9117;52.420;20.728;2023-03-31T13:30:52;4.88;;;2.75;;
17983;SDS011;9117;52.420;20.728;2023-03-31T13:33:27;8.48;;;3.15;;
17983;SDS011;9117;52.420;20.728;2023-03-31T13:36:09;6.68;;;2.67;;
17983;SDS011;9117;52.420;20.728;2023-03-31T13:39:10;11.13;;;3.10;;
17983;SDS011;9117;52.420;20.728;2023-03-31T13:41:52;6.25;;;2.80;;
17983;SDS011;9117;52.420;20.728;2023-03-31T13:44:35;10.02;;;3.50;;
17983;SDS011;9117;52.420;20.728;2023-03-31T13:47:34;10.98;;;3.90;;
17983;SDS011;9117;52.420;20.728;2023-03-31T13:50:31;9.68;;;4.03;;
17983;SDS011;9117;52.420;20.728;2023-03-31T13:53:29;8.88;;;3.47;;
17983;SDS011;9117;52.420;20.728;2023-03-31T13:56:16;13.40;;;4.10;;
17983;SDS011;9117;52.420;20.728;2023-03-31T14:07:57;9.85;;;3.70;;
17983;SDS011;9117;52.420;20.728;2023-03-31T14:10:28;9.57;;;3.65;;
17983;SDS011;9117;52.420;20.728;2023-03-31T14:13:05;9.32;;;4.03;;
17983;SDS011;9117;52.420;20.728;2023-03-31T14:15:35;7.80;;;3.75;;
17983;SDS011;9117;52.420;20.728;2023-03-31T14:18:04;10.93;;;3.92;;
17983;SDS011;9117;52.420;20.728;2023-03-31T14:20:37;9.30;;;4.65;;
17983;SDS011;9117;52.420;20.728;2023-03-31T14:23:19;9.15;;;3.83;;
17983;SDS011;9117;52.420;20.728;2023-03-31T14:25:58;7.22;;;3.60;;
17983;SDS011;9117;52.420;20.728;2023-03-31T14:28:42;10.98;;;4.00;;
17983;SDS011;9117;52.420;20.728;2023-03-31T14:31:27;8.18;;;3.58;;
17983;SDS011;9117;52.420;20.728;2023-03-31T14:34:08;8.43;;;4.22;;
17983;SDS011;9117;52.420;20.728;2023-03-31T14:36:51;7.57;;;3.55;;
17983;SDS011;9117;52.420;20.728;2023-03-31T14:39:27;9.63;;;3.88;;
17983;SDS011;9117;52.420;20.728;2023-03-31T14:41:58;12.57;;;4.57;;
17983;SDS011;9117;52.420;20.728;2023-03-31T14:44:29;8.68;;;4.03;;
17983;SDS011;9117;52.420;20.728;2023-03-31T14:46:57;11.70;;;4.57;;
17983;SDS011;9117;52.420;20.728;2023-03-31T14:49:27;10.90;;;4.30;;
17983;SDS011;9117;52.420;20.728;2023-03-31T14:51:59;10.43;;;4.45;;
17983;SDS011;9117;52.420;20.728;2023-03-31T14:54:32;8.32;;;4.03;;
17983;SDS011;9117;52.420;20.728;2023-03-31T14:57:03;8.20;;;4.45;;
17983;SDS011;9117;52.420;20.728;2023-03-31T14:59:32;8.55;;;4.45;;
17983;SDS011;9117;52.420;20.728;2023-03-31T15:02:03;10.80;;;4.50;;
17983;SDS011;9117;52.420;20.728;2023-03-31T15:04:34;9.80;;;4.72;;
17983;SDS011;9117;52.420;20.728;2023-03-31T15:07:10;12.20;;;4.20;;
17983;SDS011;9117;52.420;20.728;2023-03-31T15:09:41;7.57;;;3.78;;
17983;SDS011;9117;52.420;20.728;2023-03-31T15:12:14;9.40;;;3.95;;
17983;SDS011;9117;52.420;20.728;2023-03-31T15:14:46;8.00;;;3.45;;
17983;SDS011;9117;52.420;20.728;2023-03-31T15:17:20;4.95;;;3.17;;
17983;SDS011;9117;52.420;20.728;2023-03-31T15:19:52;9.57;;;3.25;;
17983;SDS011;9117;52.420;20.728;2023-03-31T15:22:22;6.57;;;3.00;;
17983;SDS011;9117;52.420;20.728;2023-03-31T15:24:54;9.45;;;3.20;;
17983;SDS011;9117;52.420;20.728;2023-03-31T15:27:32;10.38;;;3.90;;
17983;SDS011;9117;52.420;20.728;2023-03-31T15:30:04;6.07;;;3.67;;
17983;SDS011;9117;52.420;20.728;2023-03-31T15:32:35;9.50;;;3.90;;
17983;SDS011;9117;52.420;20.728;2023-03-31T15:35:06;9.40;;;4.28;;
17983;SDS011;9117;52.420;20.728;2023-03-31T15:37:48;8.90;;;3.60;;
17983;SDS011;9117;52.420;20.728;2023-03-31T15:40:20;9.02;;;3.70;;